sensor_id;sensor_type;location;lat;lon;timestamp;temperature;humidity
58161;DHT22;49345;47.428;9.892;2022-07-06T00:01:46;14.60;99.90
58161;DHT22;49345;47.428;9.892;2022-07-06T00:04:12;14.60;99.90
58161;DHT22;49345;47.428;9.892;2022-07-06T00:06:38;14.60;99.90
58161;DHT22;49345;47.428;9.892;2022-07-06T00:09:04;14.70;99.90
58161;DHT22;49345;47.428;9.892;2022-07-06T00:11:30;14.70;99.90
58161;DHT22;49345;47.428;9.892;2022-07-06T00:13:55;14.70;99.90
58161;DHT22;49345;47.428;9.892;2022-07-06T00:16:21;14.70;99.90
58161;DHT22;49345;47.428;9.892;2022-07-06T00:18:47;14.80;99.90
58161;DHT22;49345;47.428;9.892;2022-07-06T00:21:13;14.80;99.90
58161;DHT22;49345;47.428;9.892;2022-07-06T00:23:39;14.80;99.90
58161;DHT22;49345;47.428;9.892;2022-07-06T00:26:04;14.70;99.90
58161;DHT22;49345;47.428;9.892;2022-07-06T00:28:30;14.70;99.90
58161;DHT22;49345;47.428;9.892;2022-07-06T00:30:56;14.70;99.90
58161;DHT22;49345;47.428;9.892;2022-07-06T00:33:22;14.80;99.90
58161;DHT22;49345;47.428;9.892;2022-07-06T00:35:47;14.80;99.90
58161;DHT22;49345;47.428;9.892;2022-07-06T00:38:13;14.80;99.90
58161;DHT22;49345;47.428;9.892;2022-07-06T00:40:39;14.80;99.90
58161;DHT22;49345;47.428;9.892;2022-07-06T00:43:04;14.80;99.90
58161;DHT22;49345;47.428;9.892;2022-07-06T00:45:30;14.80;99.90
58161;DHT22;49345;47.428;9.892;2022-07-06T00:47:55;14.80;99.90
58161;DHT22;49345;47.428;9.892;2022-07-06T00:50:21;14.70;99.90
58161;DHT22;49345;47.428;9.892;2022-07-06T00:55:29;14.60;99.90
58161;DHT22;49345;47.428;9.892;2022-07-06T00:57:55;14.60;99.90
58161;DHT22;49345;47.428;9.892;2022-07-06T01:00:22;14.60;99.90
58161;DHT22;49345;47.428;9.892;2022-07-06T01:02:48;14.60;99.90
58161;DHT22;49345;47.428;9.892;2022-07-06T01:05:14;14.40;99.90
58161;DHT22;49345;47.428;9.892;2022-07-06T01:07:41;14.40;99.90
58161;DHT22;49345;47.428;9.892;2022-07-06T01:10:07;14.30;99.90
58161;DHT22;49345;47.428;9.892;2022-07-06T01:15:26;14.30;99.90
58161;DHT22;49345;47.428;9.892;2022-07-06T01:17:52;14.30;99.90
58161;DHT22;49345;47.428;9.892;2022-07-06T01:23:10;14.30;99.90
58161;DHT22;49345;47.428;9.892;2022-07-06T01:25:36;14.10;99.90
58161;DHT22;49345;47.428;9.892;2022-07-06T01:28:02;14.20;99.90
58161;DHT22;49345;47.428;9.892;2022-07-06T01:30:27;14.20;99.90
58161;DHT22;49345;47.428;9.892;2022-07-06T01:32:53;14.20;99.90
58161;DHT22;49345;47.428;9.892;2022-07-06T01:35:19;14.20;99.90
58161;DHT22;49345;47.428;9.892;2022-07-06T01:37:44;14.20;99.90
58161;DHT22;49345;47.428;9.892;2022-07-06T01:40:10;14.10;99.90
58161;DHT22;49345;47.428;9.892;2022-07-06T01:42:36;14.10;99.90
58161;DHT22;49345;47.428;9.892;2022-07-06T01:45:03;14.10;99.90
58161;DHT22;49345;47.428;9.892;2022-07-06T01:47:29;14.10;99.90
58161;DHT22;49345;47.428;9.892;2022-07-06T01:49:57;14.00;99.90
58161;DHT22;49345;47.428;9.892;2022-07-06T01:52:23;14.00;99.90
58161;DHT22;49345;47.428;9.892;2022-07-06T01:54:48;14.00;99.90
58161;DHT22;49345;47.428;9.892;2022-07-06T01:57:14;14.00;99.90
58161;DHT22;49345;47.428;9.892;2022-07-06T01:59:39;14.00;99.90
58161;DHT22;49345;47.428;9.892;2022-07-06T02:02:05;14.00;99.90
58161;DHT22;49345;47.428;9.892;2022-07-06T02:04:30;14.00;99.90
58161;DHT22;49345;47.428;9.892;2022-07-06T02:06:56;14.00;99.90
58161;DHT22;49345;47.428;9.892;2022-07-06T02:09:22;13.90;99.90
58161;DHT22;49345;47.428;9.892;2022-07-06T02:11:47;13.90;99.90
58161;DHT22;49345;47.428;9.892;2022-07-06T02:14:13;13.90;99.90
58161;DHT22;49345;47.428;9.892;2022-07-06T02:16:38;13.90;99.90
58161;DHT22;49345;47.428;9.892;2022-07-06T02:19:04;13.80;99.90
58161;DHT22;49345;47.428;9.892;2022-07-06T02:21:29;13.70;99.90
58161;DHT22;49345;47.428;9.892;2022-07-06T02:23:55;13.70;99.90
58161;DHT22;49345;47.428;9.892;2022-07-06T02:26:20;13.60;99.90
58161;DHT22;49345;47.428;9.892;2022-07-06T02:28:46;13.60;99.90
58161;DHT22;49345;47.428;9.892;2022-07-06T02:31:13;13.60;99.90
58161;DHT22;49345;47.428;9.892;2022-07-06T02:33:39;13.60;99.90
58161;DHT22;49345;47.428;9.892;2022-07-06T02:36:05;13.60;99.90
58161;DHT22;49345;47.428;9.892;2022-07-06T02:38:30;13.60;99.90
58161;DHT22;49345;47.428;9.892;2022-07-06T02:40:56;13.50;99.90
58161;DHT22;49345;47.428;9.892;2022-07-06T02:43:21;13.60;99.90
58161;DHT22;49345;47.428;9.892;2022-07-06T02:45:47;13.60;99.90
58161;DHT22;49345;47.428;9.892;2022-07-06T02:48:12;13.50;99.90
58161;DHT22;49345;47.428;9.892;2022-07-06T02:50:38;13.50;99.90
58161;DHT22;49345;47.428;9.892;2022-07-06T02:53:04;13.50;99.90
58161;DHT22;49345;47.428;9.892;2022-07-06T02:55:29;13.60;99.90
58161;DHT22;49345;47.428;9.892;2022-07-06T02:57:55;13.70;99.90
58161;DHT22;49345;47.428;9.892;2022-07-06T03:00:20;13.70;99.90
58161;DHT22;49345;47.428;9.892;2022-07-06T03:02:46;13.80;99.90
58161;DHT22;49345;47.428;9.892;2022-07-06T03:05:12;13.80;99.90
58161;DHT22;49345;47.428;9.892;2022-07-06T03:07:37;13.80;99.90
58161;DHT22;49345;47.428;9.892;2022-07-06T03:10:03;13.90;99.90
58161;DHT22;49345;47.428;9.892;2022-07-06T03:12:32;14.00;99.90
58161;DHT22;49345;47.428;9.892;2022-07-06T03:14:58;13.90;99.90
58161;DHT22;49345;47.428;9.892;2022-07-06T03:17:24;13.90;99.90
58161;DHT22;49345;47.428;9.892;2022-07-06T03:19:49;13.90;99.90
58161;DHT22;49345;47.428;9.892;2022-07-06T03:22:15;13.90;99.90
58161;DHT22;49345;47.428;9.892;2022-07-06T03:24:40;13.90;99.90
58161;DHT22;49345;47.428;9.892;2022-07-06T03:27:06;13.90;99.90
58161;DHT22;49345;47.428;9.892;2022-07-06T03:29:32;13.90;99.90
58161;DHT22;49345;47.428;9.892;2022-07-06T03:31:57;13.90;99.90
58161;DHT22;49345;47.428;9.892;2022-07-06T03:34:23;13.80;99.90
58161;DHT22;49345;47.428;9.892;2022-07-06T03:36:48;13.80;99.90
58161;DHT22;49345;47.428;9.892;2022-07-06T03:39:14;13.80;99.90
58161;DHT22;49345;47.428;9.892;2022-07-06T03:41:39;13.80;99.90
58161;DHT22;49345;47.428;9.892;2022-07-06T03:44:05;13.80;99.90
58161;DHT22;49345;47.428;9.892;2022-07-06T03:46:30;13.80;99.90
58161;DHT22;49345;47.428;9.892;2022-07-06T03:48:56;13.70;99.90
58161;DHT22;49345;47.428;9.892;2022-07-06T03:51:21;13.60;99.90
58161;DHT22;49345;47.428;9.892;2022-07-06T03:53:47;13.50;99.90
58161;DHT22;49345;47.428;9.892;2022-07-06T03:56:12;13.50;99.90
58161;DHT22;49345;47.428;9.892;2022-07-06T03:59:15;13.50;99.90
58161;DHT22;49345;47.428;9.892;2022-07-06T04:01:41;13.50;99.90
58161;DHT22;49345;47.428;9.892;2022-07-06T04:04:06;13.50;99.90
58161;DHT22;49345;47.428;9.892;2022-07-06T04:06:32;13.60;99.90
58161;DHT22;49345;47.428;9.892;2022-07-06T04:09:00;13.60;99.90
58161;DHT22;49345;47.428;9.892;2022-07-06T04:11:25;13.50;99.90
58161;DHT22;49345;47.428;9.892;2022-07-06T04:13:51;13.50;99.90
58161;DHT22;49345;47.428;9.892;2022-07-06T04:16:16;13.50;99.90
58161;DHT22;49345;47.428;9.892;2022-07-06T04:18:42;13.50;99.90
58161;DHT22;49345;47.428;9.892;2022-07-06T04:21:07;13.50;99.90
58161;DHT22;49345;47.428;9.892;2022-07-06T04:23:36;13.60;99.90
58161;DHT22;49345;47.428;9.892;2022-07-06T04:26:02;13.50;99.90
58161;DHT22;49345;47.428;9.892;2022-07-06T04:28:27;13.50;99.90
58161;DHT22;49345;47.428;9.892;2022-07-06T04:30:53;13.60;99.90
58161;DHT22;49345;47.428;9.892;2022-07-06T04:33:18;13.60;99.90
58161;DHT22;49345;47.428;9.892;2022-07-06T04:35:44;13.70;99.90
58161;DHT22;49345;47.428;9.892;2022-07-06T04:38:10;13.70;99.90
58161;DHT22;49345;47.428;9.892;2022-07-06T04:40:35;13.70;99.90
58161;DHT22;49345;47.428;9.892;2022-07-06T04:43:01;13.70;99.90
58161;DHT22;49345;47.428;9.892;2022-07-06T04:45:26;13.80;99.90
58161;DHT22;49345;47.428;9.892;2022-07-06T04:47:52;13.80;99.90
58161;DHT22;49345;47.428;9.892;2022-07-06T04:50:18;13.90;99.90
58161;DHT22;49345;47.428;9.892;2022-07-06T04:52:43;14.00;99.90
58161;DHT22;49345;47.428;9.892;2022-07-06T04:55:09;14.00;99.90
58161;DHT22;49345;47.428;9.892;2022-07-06T04:57:35;14.00;99.90
58161;DHT22;49345;47.428;9.892;2022-07-06T05:00:01;14.10;99.90
58161;DHT22;49345;47.428;9.892;2022-07-06T05:02:26;14.10;99.90
58161;DHT22;49345;47.428;9.892;2022-07-06T05:04:52;14.20;99.90
58161;DHT22;49345;47.428;9.892;2022-07-06T05:07:17;14.10;99.90
58161;DHT22;49345;47.428;9.892;2022-07-06T05:09:43;14.20;99.90
58161;DHT22;49345;47.428;9.892;2022-07-06T05:12:09;14.20;99.90
58161;DHT22;49345;47.428;9.892;2022-07-06T05:14:34;14.30;99.90
58161;DHT22;49345;47.428;9.892;2022-07-06T05:17:01;14.20;99.90
58161;DHT22;49345;47.428;9.892;2022-07-06T05:19:27;14.20;99.90
58161;DHT22;49345;47.428;9.892;2022-07-06T05:21:55;14.30;99.90
58161;DHT22;49345;47.428;9.892;2022-07-06T05:24:21;14.40;99.90
58161;DHT22;49345;47.428;9.892;2022-07-06T05:26:46;14.50;99.90
58161;DHT22;49345;47.428;9.892;2022-07-06T05:29:12;14.50;99.90
58161;DHT22;49345;47.428;9.892;2022-07-06T05:31:38;14.70;99.90
58161;DHT22;49345;47.428;9.892;2022-07-06T05:34:03;14.70;99.90
58161;DHT22;49345;47.428;9.892;2022-07-06T05:36:29;14.80;99.90
58161;DHT22;49345;47.428;9.892;2022-07-06T05:38:54;15.00;99.90
58161;DHT22;49345;47.428;9.892;2022-07-06T05:41:20;15.10;99.90
58161;DHT22;49345;47.428;9.892;2022-07-06T05:43:46;15.20;99.90
58161;DHT22;49345;47.428;9.892;2022-07-06T05:46:11;15.30;99.90
58161;DHT22;49345;47.428;9.892;2022-07-06T05:48:37;15.40;99.90
58161;DHT22;49345;47.428;9.892;2022-07-06T05:51:32;15.50;99.90
58161;DHT22;49345;47.428;9.892;2022-07-06T05:53:58;15.50;99.90
58161;DHT22;49345;47.428;9.892;2022-07-06T05:56:23;15.60;99.90
58161;DHT22;49345;47.428;9.892;2022-07-06T05:58:49;15.70;99.90
58161;DHT22;49345;47.428;9.892;2022-07-06T06:01:15;15.80;99.90
58161;DHT22;49345;47.428;9.892;2022-07-06T06:03:40;15.90;99.90
58161;DHT22;49345;47.428;9.892;2022-07-06T06:06:06;16.10;99.90
58161;DHT22;49345;47.428;9.892;2022-07-06T06:08:31;16.30;99.90
58161;DHT22;49345;47.428;9.892;2022-07-06T06:10:57;16.50;99.90
58161;DHT22;49345;47.428;9.892;2022-07-06T06:13:22;16.60;99.90
58161;DHT22;49345;47.428;9.892;2022-07-06T06:15:48;16.70;99.90
58161;DHT22;49345;47.428;9.892;2022-07-06T06:18:14;16.80;99.90
58161;DHT22;49345;47.428;9.892;2022-07-06T06:20:42;16.90;99.90
58161;DHT22;49345;47.428;9.892;2022-07-06T06:23:08;17.00;99.90
58161;DHT22;49345;47.428;9.892;2022-07-06T06:25:34;17.00;99.90
58161;DHT22;49345;47.428;9.892;2022-07-06T06:28:01;17.20;99.90
58161;DHT22;49345;47.428;9.892;2022-07-06T06:30:27;17.30;99.90
58161;DHT22;49345;47.428;9.892;2022-07-06T06:35:49;17.20;99.90
58161;DHT22;49345;47.428;9.892;2022-07-06T06:38:15;17.20;99.90
58161;DHT22;49345;47.428;9.892;2022-07-06T06:40:41;17.20;99.90
58161;DHT22;49345;47.428;9.892;2022-07-06T06:43:06;17.10;99.90
58161;DHT22;49345;47.428;9.892;2022-07-06T06:45:32;17.20;99.90
58161;DHT22;49345;47.428;9.892;2022-07-06T06:47:58;17.30;99.90
58161;DHT22;49345;47.428;9.892;2022-07-06T06:50:23;17.40;99.90
58161;DHT22;49345;47.428;9.892;2022-07-06T06:52:49;17.40;99.90
58161;DHT22;49345;47.428;9.892;2022-07-06T06:55:15;17.50;99.90
58161;DHT22;49345;47.428;9.892;2022-07-06T06:57:41;17.60;99.90
58161;DHT22;49345;47.428;9.892;2022-07-06T07:00:06;17.70;99.90
58161;DHT22;49345;47.428;9.892;2022-07-06T07:02:32;17.70;99.50
58161;DHT22;49345;47.428;9.892;2022-07-06T07:04:58;17.80;99.10
58161;DHT22;49345;47.428;9.892;2022-07-06T07:07:23;17.90;99.00
58161;DHT22;49345;47.428;9.892;2022-07-06T07:09:49;17.80;99.80
58161;DHT22;49345;47.428;9.892;2022-07-06T07:12:14;17.90;99.70
58161;DHT22;49345;47.428;9.892;2022-07-06T07:14:42;17.90;99.50
58161;DHT22;49345;47.428;9.892;2022-07-06T07:17:08;17.90;99.30
58161;DHT22;49345;47.428;9.892;2022-07-06T07:19:34;17.80;99.20
58161;DHT22;49345;47.428;9.892;2022-07-06T07:21:59;17.90;99.00
58161;DHT22;49345;47.428;9.892;2022-07-06T07:24:25;17.90;98.90
58161;DHT22;49345;47.428;9.892;2022-07-06T07:26:50;17.90;98.70
58161;DHT22;49345;47.428;9.892;2022-07-06T07:29:16;17.90;99.60
58161;DHT22;49345;47.428;9.892;2022-07-06T07:31:41;18.00;98.60
58161;DHT22;49345;47.428;9.892;2022-07-06T07:34:07;18.00;98.40
58161;DHT22;49345;47.428;9.892;2022-07-06T07:36:32;18.00;97.80
58161;DHT22;49345;47.428;9.892;2022-07-06T07:38:58;18.00;98.80
58161;DHT22;49345;47.428;9.892;2022-07-06T07:41:23;18.00;98.90
58161;DHT22;49345;47.428;9.892;2022-07-06T07:43:49;18.20;98.40
58161;DHT22;49345;47.428;9.892;2022-07-06T07:46:14;18.20;97.80
58161;DHT22;49345;47.428;9.892;2022-07-06T07:48:41;18.30;96.80
58161;DHT22;49345;47.428;9.892;2022-07-06T07:51:06;18.40;96.50
58161;DHT22;49345;47.428;9.892;2022-07-06T07:53:32;18.40;96.10
58161;DHT22;49345;47.428;9.892;2022-07-06T07:55:58;18.50;96.40
58161;DHT22;49345;47.428;9.892;2022-07-06T07:58:23;18.50;96.90
58161;DHT22;49345;47.428;9.892;2022-07-06T08:00:49;18.60;96.10
58161;DHT22;49345;47.428;9.892;2022-07-06T08:03:17;18.60;96.10
58161;DHT22;49345;47.428;9.892;2022-07-06T08:05:43;18.70;95.60
58161;DHT22;49345;47.428;9.892;2022-07-06T08:08:09;18.80;94.80
58161;DHT22;49345;47.428;9.892;2022-07-06T08:10:34;19.00;95.10
58161;DHT22;49345;47.428;9.892;2022-07-06T08:13:00;19.10;94.40
58161;DHT22;49345;47.428;9.892;2022-07-06T08:15:28;19.20;94.40
58161;DHT22;49345;47.428;9.892;2022-07-06T08:17:54;19.30;93.80
58161;DHT22;49345;47.428;9.892;2022-07-06T08:20:19;19.40;93.40
58161;DHT22;49345;47.428;9.892;2022-07-06T08:22:45;19.40;93.30
58161;DHT22;49345;47.428;9.892;2022-07-06T08:25:10;19.40;92.70
58161;DHT22;49345;47.428;9.892;2022-07-06T08:27:36;19.40;93.00
58161;DHT22;49345;47.428;9.892;2022-07-06T08:30:03;19.50;93.50
58161;DHT22;49345;47.428;9.892;2022-07-06T08:32:29;19.60;94.40
58161;DHT22;49345;47.428;9.892;2022-07-06T08:34:54;19.70;94.60
58161;DHT22;49345;47.428;9.892;2022-07-06T08:37:20;19.70;94.80
58161;DHT22;49345;47.428;9.892;2022-07-06T08:39:46;19.80;93.80
58161;DHT22;49345;47.428;9.892;2022-07-06T08:42:11;19.90;93.90
58161;DHT22;49345;47.428;9.892;2022-07-06T08:44:37;20.00;94.30
58161;DHT22;49345;47.428;9.892;2022-07-06T08:49:57;20.30;93.50
58161;DHT22;49345;47.428;9.892;2022-07-06T08:52:23;20.40;93.30
58161;DHT22;49345;47.428;9.892;2022-07-06T08:54:49;20.40;93.60
58161;DHT22;49345;47.428;9.892;2022-07-06T08:57:14;20.40;94.20
58161;DHT22;49345;47.428;9.892;2022-07-06T08:59:40;20.50;93.80
58161;DHT22;49345;47.428;9.892;2022-07-06T09:02:06;20.60;93.70
58161;DHT22;49345;47.428;9.892;2022-07-06T09:04:32;20.60;93.60
58161;DHT22;49345;47.428;9.892;2022-07-06T09:06:58;20.60;93.50
58161;DHT22;49345;47.428;9.892;2022-07-06T09:09:24;20.60;93.90
58161;DHT22;49345;47.428;9.892;2022-07-06T09:11:50;20.70;94.20
58161;DHT22;49345;47.428;9.892;2022-07-06T09:14:16;20.70;94.20
58161;DHT22;49345;47.428;9.892;2022-07-06T09:16:42;20.80;94.50
58161;DHT22;49345;47.428;9.892;2022-07-06T09:19:09;21.00;91.80
58161;DHT22;49345;47.428;9.892;2022-07-06T09:21:35;21.00;92.20
58161;DHT22;49345;47.428;9.892;2022-07-06T09:24:31;21.10;91.90
58161;DHT22;49345;47.428;9.892;2022-07-06T09:26:57;21.20;91.40
58161;DHT22;49345;47.428;9.892;2022-07-06T09:32:15;21.30;91.50
58161;DHT22;49345;47.428;9.892;2022-07-06T09:34:45;21.30;92.40
58161;DHT22;49345;47.428;9.892;2022-07-06T09:37:11;21.50;91.20
58161;DHT22;49345;47.428;9.892;2022-07-06T09:39:36;21.50;91.40
58161;DHT22;49345;47.428;9.892;2022-07-06T09:42:03;21.50;92.00
58161;DHT22;49345;47.428;9.892;2022-07-06T09:44:29;21.60;91.50
58161;DHT22;49345;47.428;9.892;2022-07-06T09:46:56;21.60;91.50
58161;DHT22;49345;47.428;9.892;2022-07-06T09:49:22;21.60;90.60
58161;DHT22;49345;47.428;9.892;2022-07-06T09:51:48;21.60;91.10
58161;DHT22;49345;47.428;9.892;2022-07-06T09:54:15;21.70;91.00
58161;DHT22;49345;47.428;9.892;2022-07-06T09:56:41;21.80;90.50
58161;DHT22;49345;47.428;9.892;2022-07-06T09:59:08;21.80;90.20
58161;DHT22;49345;47.428;9.892;2022-07-06T10:01:34;21.80;90.60
58161;DHT22;49345;47.428;9.892;2022-07-06T10:04:00;21.90;91.00
58161;DHT22;49345;47.428;9.892;2022-07-06T10:06:26;21.90;91.10
58161;DHT22;49345;47.428;9.892;2022-07-06T10:08:53;22.00;90.50
58161;DHT22;49345;47.428;9.892;2022-07-06T10:11:20;22.00;88.40
58161;DHT22;49345;47.428;9.892;2022-07-06T10:13:46;22.10;90.30
58161;DHT22;49345;47.428;9.892;2022-07-06T10:16:14;22.20;91.60
58161;DHT22;49345;47.428;9.892;2022-07-06T10:18:40;22.20;89.50
58161;DHT22;49345;47.428;9.892;2022-07-06T10:21:06;22.30;88.10
58161;DHT22;49345;47.428;9.892;2022-07-06T10:23:33;22.40;89.40
58161;DHT22;49345;47.428;9.892;2022-07-06T10:26:00;22.40;83.00
58161;DHT22;49345;47.428;9.892;2022-07-06T10:28:25;22.30;85.80
58161;DHT22;49345;47.428;9.892;2022-07-06T10:30:51;22.30;87.80
58161;DHT22;49345;47.428;9.892;2022-07-06T10:33:17;22.40;85.60
58161;DHT22;49345;47.428;9.892;2022-07-06T10:35:43;22.50;84.70
58161;DHT22;49345;47.428;9.892;2022-07-06T10:38:09;22.50;85.30
58161;DHT22;49345;47.428;9.892;2022-07-06T10:40:36;22.40;85.40
58161;DHT22;49345;47.428;9.892;2022-07-06T10:43:36;22.30;85.30
58161;DHT22;49345;47.428;9.892;2022-07-06T10:48:56;22.40;87.70
58161;DHT22;49345;47.428;9.892;2022-07-06T10:54:25;22.50;84.00
58161;DHT22;49345;47.428;9.892;2022-07-06T10:56:51;22.60;83.20
58161;DHT22;49345;47.428;9.892;2022-07-06T11:02:19;22.70;82.20
58161;DHT22;49345;47.428;9.892;2022-07-06T11:04:48;22.70;81.90
58161;DHT22;49345;47.428;9.892;2022-07-06T11:07:15;22.80;80.90
58161;DHT22;49345;47.428;9.892;2022-07-06T11:09:41;22.90;80.50
58161;DHT22;49345;47.428;9.892;2022-07-06T11:12:45;22.90;81.00
58161;DHT22;49345;47.428;9.892;2022-07-06T11:15:10;23.10;81.90
58161;DHT22;49345;47.428;9.892;2022-07-06T11:17:36;23.20;78.80
58161;DHT22;49345;47.428;9.892;2022-07-06T11:22:56;23.30;75.20
58161;DHT22;49345;47.428;9.892;2022-07-06T11:25:21;23.30;77.30
58161;DHT22;49345;47.428;9.892;2022-07-06T11:27:47;23.20;77.90
58161;DHT22;49345;47.428;9.892;2022-07-06T11:30:13;23.30;76.10
58161;DHT22;49345;47.428;9.892;2022-07-06T11:32:38;23.30;75.50
58161;DHT22;49345;47.428;9.892;2022-07-06T11:35:04;23.30;74.70
58161;DHT22;49345;47.428;9.892;2022-07-06T11:37:30;23.50;74.80
58161;DHT22;49345;47.428;9.892;2022-07-06T11:39:55;23.60;75.20
58161;DHT22;49345;47.428;9.892;2022-07-06T11:42:21;23.70;73.50
58161;DHT22;49345;47.428;9.892;2022-07-06T11:44:46;23.70;72.30
58161;DHT22;49345;47.428;9.892;2022-07-06T11:47:12;23.80;74.60
58161;DHT22;49345;47.428;9.892;2022-07-06T11:49:38;23.90;74.00
58161;DHT22;49345;47.428;9.892;2022-07-06T11:54:57;24.20;70.80
58161;DHT22;49345;47.428;9.892;2022-07-06T11:57:23;24.30;73.20
58161;DHT22;49345;47.428;9.892;2022-07-06T11:59:49;24.30;70.20
58161;DHT22;49345;47.428;9.892;2022-07-06T12:02:16;24.40;69.50
58161;DHT22;49345;47.428;9.892;2022-07-06T12:04:43;24.30;70.10
58161;DHT22;49345;47.428;9.892;2022-07-06T12:07:10;24.20;70.50
58161;DHT22;49345;47.428;9.892;2022-07-06T12:10:02;24.20;70.80
58161;DHT22;49345;47.428;9.892;2022-07-06T12:12:28;24.00;69.90
58161;DHT22;49345;47.428;9.892;2022-07-06T12:14:54;24.10;69.90
58161;DHT22;49345;47.428;9.892;2022-07-06T12:17:19;24.10;70.80
58161;DHT22;49345;47.428;9.892;2022-07-06T12:19:45;24.20;73.60
58161;DHT22;49345;47.428;9.892;2022-07-06T12:22:23;24.20;68.70
58161;DHT22;49345;47.428;9.892;2022-07-06T12:24:49;24.20;72.40
58161;DHT22;49345;47.428;9.892;2022-07-06T12:27:16;24.40;67.80
58161;DHT22;49345;47.428;9.892;2022-07-06T12:29:42;24.40;65.00
58161;DHT22;49345;47.428;9.892;2022-07-06T12:32:13;24.60;67.40
58161;DHT22;49345;47.428;9.892;2022-07-06T12:34:39;24.70;68.70
58161;DHT22;49345;47.428;9.892;2022-07-06T12:39:58;25.10;68.70
58161;DHT22;49345;47.428;9.892;2022-07-06T12:42:23;25.40;69.10
58161;DHT22;49345;47.428;9.892;2022-07-06T12:44:50;25.40;70.40
58161;DHT22;49345;47.428;9.892;2022-07-06T12:47:17;25.40;71.80
58161;DHT22;49345;47.428;9.892;2022-07-06T12:49:43;25.50;65.00
58161;DHT22;49345;47.428;9.892;2022-07-06T12:52:09;25.40;65.70
58161;DHT22;49345;47.428;9.892;2022-07-06T12:57:41;25.30;68.00
58161;DHT22;49345;47.428;9.892;2022-07-06T13:00:07;25.20;66.50
58161;DHT22;49345;47.428;9.892;2022-07-06T13:02:33;25.20;66.80
58161;DHT22;49345;47.428;9.892;2022-07-06T13:05:02;25.00;62.60
58161;DHT22;49345;47.428;9.892;2022-07-06T13:07:28;24.90;63.90
58161;DHT22;49345;47.428;9.892;2022-07-06T13:09:57;24.90;65.80
58161;DHT22;49345;47.428;9.892;2022-07-06T13:12:23;24.80;65.20
58161;DHT22;49345;47.428;9.892;2022-07-06T13:14:49;24.80;65.20
58161;DHT22;49345;47.428;9.892;2022-07-06T13:17:14;24.70;66.50
58161;DHT22;49345;47.428;9.892;2022-07-06T13:19:40;24.60;64.10
58161;DHT22;49345;47.428;9.892;2022-07-06T13:22:05;24.60;61.80
58161;DHT22;49345;47.428;9.892;2022-07-06T13:24:31;24.60;62.90
58161;DHT22;49345;47.428;9.892;2022-07-06T13:26:57;24.70;66.70
58161;DHT22;49345;47.428;9.892;2022-07-06T13:29:22;24.80;63.70
58161;DHT22;49345;47.428;9.892;2022-07-06T13:31:48;24.90;63.60
58161;DHT22;49345;47.428;9.892;2022-07-06T13:34:14;24.80;62.10
58161;DHT22;49345;47.428;9.892;2022-07-06T13:36:39;24.50;62.70
58161;DHT22;49345;47.428;9.892;2022-07-06T13:39:05;24.50;62.00
58161;DHT22;49345;47.428;9.892;2022-07-06T13:41:32;24.50;61.40
58161;DHT22;49345;47.428;9.892;2022-07-06T13:43:57;24.40;61.30
58161;DHT22;49345;47.428;9.892;2022-07-06T13:46:26;24.40;61.60
58161;DHT22;49345;47.428;9.892;2022-07-06T13:48:52;24.40;60.00
58161;DHT22;49345;47.428;9.892;2022-07-06T13:51:18;24.50;61.90
58161;DHT22;49345;47.428;9.892;2022-07-06T13:53:44;24.40;63.90
58161;DHT22;49345;47.428;9.892;2022-07-06T13:56:09;24.40;62.90
58161;DHT22;49345;47.428;9.892;2022-07-06T13:58:35;24.50;65.10
58161;DHT22;49345;47.428;9.892;2022-07-06T14:01:01;24.60;60.70
58161;DHT22;49345;47.428;9.892;2022-07-06T14:03:27;24.70;58.80
58161;DHT22;49345;47.428;9.892;2022-07-06T14:05:55;24.80;61.20
58161;DHT22;49345;47.428;9.892;2022-07-06T14:08:21;24.80;62.10
58161;DHT22;49345;47.428;9.892;2022-07-06T14:10:47;25.00;61.00
58161;DHT22;49345;47.428;9.892;2022-07-06T14:13:12;25.00;59.60
58161;DHT22;49345;47.428;9.892;2022-07-06T14:15:38;24.90;60.20
58161;DHT22;49345;47.428;9.892;2022-07-06T14:18:03;24.90;61.40
58161;DHT22;49345;47.428;9.892;2022-07-06T14:20:29;24.80;58.10
58161;DHT22;49345;47.428;9.892;2022-07-06T14:22:55;24.70;60.20
58161;DHT22;49345;47.428;9.892;2022-07-06T14:25:20;24.80;59.50
58161;DHT22;49345;47.428;9.892;2022-07-06T14:27:46;24.80;59.60
58161;DHT22;49345;47.428;9.892;2022-07-06T14:30:12;24.80;58.80
58161;DHT22;49345;47.428;9.892;2022-07-06T14:32:37;24.90;57.00
58161;DHT22;49345;47.428;9.892;2022-07-06T14:35:03;24.90;56.30
58161;DHT22;49345;47.428;9.892;2022-07-06T14:37:29;25.00;56.00
58161;DHT22;49345;47.428;9.892;2022-07-06T14:39:54;24.90;56.90
58161;DHT22;49345;47.428;9.892;2022-07-06T14:42:20;25.00;56.20
58161;DHT22;49345;47.428;9.892;2022-07-06T14:44:45;25.00;55.40
58161;DHT22;49345;47.428;9.892;2022-07-06T14:47:11;24.90;54.10
58161;DHT22;49345;47.428;9.892;2022-07-06T14:49:36;24.80;53.40
58161;DHT22;49345;47.428;9.892;2022-07-06T14:52:03;24.80;54.60
58161;DHT22;49345;47.428;9.892;2022-07-06T14:54:28;24.70;55.60
58161;DHT22;49345;47.428;9.892;2022-07-06T14:56:54;24.70;54.90
58161;DHT22;49345;47.428;9.892;2022-07-06T14:59:19;24.80;54.10
58161;DHT22;49345;47.428;9.892;2022-07-06T15:01:45;24.80;54.10
58161;DHT22;49345;47.428;9.892;2022-07-06T15:04:11;24.80;53.60
58161;DHT22;49345;47.428;9.892;2022-07-06T15:06:37;24.80;54.10
58161;DHT22;49345;47.428;9.892;2022-07-06T15:09:02;24.80;53.80
58161;DHT22;49345;47.428;9.892;2022-07-06T15:11:30;24.80;52.80
58161;DHT22;49345;47.428;9.892;2022-07-06T15:13:55;24.90;53.90
58161;DHT22;49345;47.428;9.892;2022-07-06T15:16:21;25.00;53.00
58161;DHT22;49345;47.428;9.892;2022-07-06T15:18:46;25.00;53.30
58161;DHT22;49345;47.428;9.892;2022-07-06T15:21:12;25.00;52.10
58161;DHT22;49345;47.428;9.892;2022-07-06T15:23:37;25.00;52.90
58161;DHT22;49345;47.428;9.892;2022-07-06T15:26:03;25.00;51.00
58161;DHT22;49345;47.428;9.892;2022-07-06T15:28:29;25.10;50.20
58161;DHT22;49345;47.428;9.892;2022-07-06T15:30:54;25.10;51.40
58161;DHT22;49345;47.428;9.892;2022-07-06T15:33:20;25.00;50.40
58161;DHT22;49345;47.428;9.892;2022-07-06T15:35:46;25.00;51.10
58161;DHT22;49345;47.428;9.892;2022-07-06T15:38:13;25.00;51.50
58161;DHT22;49345;47.428;9.892;2022-07-06T15:40:38;25.10;50.90
58161;DHT22;49345;47.428;9.892;2022-07-06T15:43:06;25.20;50.80
58161;DHT22;49345;47.428;9.892;2022-07-06T15:45:32;25.30;50.40
58161;DHT22;49345;47.428;9.892;2022-07-06T15:47:58;25.50;49.80
58161;DHT22;49345;47.428;9.892;2022-07-06T15:50:23;25.60;50.90
58161;DHT22;49345;47.428;9.892;2022-07-06T15:52:49;25.80;49.60
58161;DHT22;49345;47.428;9.892;2022-07-06T15:55:15;25.90;49.20
58161;DHT22;49345;47.428;9.892;2022-07-06T15:57:40;25.80;47.90
58161;DHT22;49345;47.428;9.892;2022-07-06T16:00:06;26.00;47.50
58161;DHT22;49345;47.428;9.892;2022-07-06T16:02:32;26.00;47.40